Time;durP1;ratioP1;P1;durP2;ratioP2;P2;SDS_P1;SDS_P2;PMS_P1;PMS_P2;Temp;Humidity;BMP_temperature;BMP_pressure;BME280_temperature;BME280_humidity;BME280_pressure;Samples;Min_cycle;Max_cycle;Signal;HPM_P1;HPM_P2
2022/03/03 00:02:05;;;;;;;51.13;25.60;;;0.50;99.90;;;;;;4843205;29;20073;-75
2022/03/03 00:04:31;;;;;;;56.13;25.63;;;0.40;99.90;;;;;;4842693;29;20509;-75
2022/03/03 00:06:57;;;;;;;57.47;26.98;;;0.50;99.90;;;;;;4842926;29;20054;-75
2022/03/03 00:09:22;;;;;;;57.78;26.95;;;0.50;99.90;;;;;;4842890;29;20436;-75
2022/03/03 00:11:48;;;;;;;57.70;25.73;;;0.50;99.90;;;;;;4843085;29;20034;-74
2022/03/03 00:14:14;;;;;;;64.15;27.70;;;0.40;99.90;;;;;;4843007;29;20103;-74
2022/03/03 00:16:39;;;;;;;56.17;26.90;;;0.50;99.90;;;;;;4826732;29;20173;-75
2022/03/03 00:19:05;;;;;;;58.70;26.23;;;0.50;99.90;;;;;;4811178;29;20160;-74
2022/03/03 00:21:31;;;;;;;55.30;26.08;;;0.40;99.90;;;;;;4826478;29;20064;-74
2022/03/03 00:23:57;;;;;;;50.67;24.48;;;0.40;99.90;;;;;;4826574;29;20054;-73
2022/03/03 00:26:22;;;;;;;50.13;23.70;;;0.40;99.90;;;;;;4842799;29;20053;-75
2022/03/03 00:28:48;;;;;;;53.95;23.42;;;0.40;99.90;;;;;;4826281;29;20133;-75
2022/03/03 00:31:14;;;;;;;53.78;24.92;;;0.40;99.90;;;;;;4842894;29;20084;-75
2022/03/03 00:33:40;;;;;;;46.63;22.95;;;0.40;99.90;;;;;;4842434;29;20483;-74
2022/03/03 00:36:05;;;;;;;52.58;23.98;;;0.30;99.90;;;;;;4826236;29;20412;-75
2022/03/03 00:38:31;;;;;;;47.20;22.23;;;0.30;99.90;;;;;;4842367;29;20081;-75
2022/03/03 00:40:56;;;;;;;46.25;20.48;;;0.30;99.90;;;;;;4826200;29;20088;-75
2022/03/03 00:43:22;;;;;;;45.83;21.83;;;0.30;99.90;;;;;;4841773;29;20054;-75
2022/03/03 00:45:48;;;;;;;45.83;21.13;;;0.30;99.90;;;;;;4842246;29;20387;-75
2022/03/03 00:48:13;;;;;;;44.67;21.75;;;0.30;99.90;;;;;;4842436;29;20053;-74
2022/03/03 00:50:39;;;;;;;48.15;20.98;;;0.30;99.90;;;;;;4842116;29;20384;-75
2022/03/03 00:53:05;;;;;;;47.83;22.02;;;0.20;99.90;;;;;;4841975;29;20042;-75
2022/03/03 00:55:31;;;;;;;40.97;18.75;;;0.20;99.90;;;;;;4842366;29;20083;-75
2022/03/03 00:57:56;;;;;;;44.15;20.27;;;0.10;99.90;;;;;;4842156;29;20079;-75
2022/03/03 01:00:22;;;;;;;45.65;23.67;;;0.10;99.90;;;;;;4825694;29;20046;-75
2022/03/03 01:02:51;;;;;;;51.35;23.38;;;0.10;99.90;;;;;;4842182;29;20132;-74
2022/03/03 01:05:17;;;;;;;49.55;23.63;;;0.10;99.90;;;;;;4841809;29;20053;-73
2022/03/03 01:07:43;;;;;;;46.53;22.55;;;0.10;99.90;;;;;;4825866;29;20399;-74
2022/03/03 01:10:10;;;;;;;58.33;25.10;;;0.10;99.90;;;;;;4842198;29;20093;-75
2022/03/03 01:12:36;;;;;;;54.50;25.02;;;0.10;99.90;;;;;;4841827;29;20045;-75
2022/03/03 01:15:04;;;;;;;51.13;23.17;;;0.10;99.90;;;;;;4825689;29;20062;-74
2022/03/03 01:17:30;;;;;;;51.00;22.50;;;0.10;99.90;;;;;;4842005;29;20049;-75
2022/03/03 01:19:55;;;;;;;47.90;22.05;;;0.10;99.90;;;;;;4825684;29;20058;-75
2022/03/03 01:22:21;;;;;;;45.97;22.33;;;0.10;99.90;;;;;;4841628;29;20053;-75
2022/03/03 01:24:47;;;;;;;51.38;24.83;;;0.10;99.90;;;;;;4841858;29;20046;-75
2022/03/03 01:27:13;;;;;;;51.55;23.70;;;0.20;99.90;;;;;;4825658;29;20050;-75
2022/03/03 01:29:38;;;;;;;55.00;23.80;;;0.20;99.90;;;;;;4825332;29;20054;-75
2022/03/03 01:32:06;;;;;;;55.65;24.50;;;0.20;99.90;;;;;;4841901;29;20384;-73
2022/03/03 01:34:32;;;;;;;53.75;25.58;;;0.20;99.90;;;;;;4841826;29;20125;-75
2022/03/03 01:36:58;;;;;;;53.33;24.63;;;0.20;99.90;;;;;;4841640;29;20065;-75
2022/03/03 01:39:23;;;;;;;54.72;24.92;;;0.20;99.90;;;;;;4841549;29;20068;-75
2022/03/03 01:41:49;;;;;;;53.63;25.02;;;0.20;99.90;;;;;;4841748;29;20407;-75
2022/03/03 01:44:15;;;;;;;53.42;24.75;;;0.20;99.90;;;;;;4841974;29;20049;-75
2022/03/03 01:46:57;;;;;;;52.70;23.55;;;0.30;99.90;;;;;;4841766;29;20054;-75
2022/03/03 01:49:24;;;;;;;48.00;22.67;;;0.30;99.90;;;;;;4841760;29;20060;-77
2022/03/03 01:51:51;;;;;;;51.22;23.33;;;0.30;99.90;;;;;;4841272;29;20078;-77
2022/03/03 01:54:17;;;;;;;53.60;22.85;;;0.30;99.90;;;;;;4825250;29;20053;-77
2022/03/03 01:56:45;;;;;;;48.35;22.52;;;0.30;99.90;;;;;;4845161;29;20056;-77
2022/03/03 01:59:11;;;;;;;49.42;23.80;;;0.30;99.90;;;;;;4845319;29;20486;-77
2022/03/03 02:01:37;;;;;;;50.58;24.23;;;0.20;99.90;;;;;;4837704;29;20087;-77
2022/03/03 02:04:09;;;;;;;45.92;22.00;;;0.20;99.90;;;;;;4828764;29;20049;-77
2022/03/03 02:06:35;;;;;;;52.60;24.10;;;0.20;99.90;;;;;;4845011;29;20103;-76
2022/03/03 02:09:02;;;;;;;53.78;25.98;;;0.20;99.90;;;;;;4828406;29;20062;-77
2022/03/03 02:11:30;;;;;;;47.67;23.27;;;0.20;99.90;;;;;;4827991;29;20062;-75
2022/03/03 02:13:56;;;;;;;48.00;23.23;;;0.30;99.90;;;;;;4845095;29;20122;-74
2022/03/03 02:16:22;;;;;;;50.72;23.75;;;0.30;99.90;;;;;;4845103;29;20050;-74
2022/03/03 02:18:48;;;;;;;48.55;22.45;;;0.30;99.90;;;;;;4844982;29;20061;-74
2022/03/03 02:21:15;;;;;;;47.42;23.77;;;0.20;99.90;;;;;;4828122;29;20058;-74
2022/03/03 02:23:42;;;;;;;50.58;23.20;;;0.20;99.90;;;;;;4844455;29;20053;-76
2022/03/03 02:26:21;;;;;;;48.83;22.90;;;0.20;99.90;;;;;;4844773;29;20060;-76
2022/03/03 02:28:48;;;;;;;50.50;23.45;;;0.20;99.90;;;;;;4844735;29;20502;-72
2022/03/03 02:31:15;;;;;;;49.05;23.27;;;0.20;99.90;;;;;;4828701;29;20093;-74
2022/03/03 02:33:41;;;;;;;46.67;21.80;;;0.20;99.90;;;;;;4844579;29;20391;-74
2022/03/03 02:36:23;;;;;;;42.95;21.10;;;0.20;99.90;;;;;;4828386;29;20057;-74
2022/03/03 02:38:52;;;;;;;46.28;22.17;;;0.10;99.90;;;;;;4844334;29;20049;-74
2022/03/03 02:41:18;;;;;;;40.78;19.58;;;0.10;99.90;;;;;;4844612;29;20125;-74
2022/03/03 02:43:44;;;;;;;43.78;19.42;;;0.10;99.90;;;;;;4827974;29;20137;-74
2022/03/03 02:46:10;;;;;;;42.47;20.75;;;0.00;99.90;;;;;;4828074;29;20498;-74
2022/03/03 02:48:35;;;;;;;42.60;21.60;;;0.00;99.90;;;;;;4828043;29;20092;-73
2022/03/03 02:51:01;;;;;;;41.35;20.23;;;-0.20;99.90;;;;;;4827299;29;20521;-73
2022/03/03 02:53:27;;;;;;;46.10;22.10;;;-0.20;99.90;;;;;;4844277;29;20050;-74
2022/03/03 02:55:53;;;;;;;44.67;22.95;;;-0.20;99.90;;;;;;4827644;29;20407;-74
2022/03/03 02:58:19;;;;;;;50.50;23.33;;;-0.20;99.90;;;;;;4844258;29;20054;-74
2022/03/03 03:00:46;;;;;;;43.85;21.08;;;-0.20;99.90;;;;;;4812304;29;20065;-74
2022/03/03 03:03:13;;;;;;;44.55;23.23;;;-0.10;99.90;;;;;;4827050;29;20058;-74
2022/03/03 03:05:39;;;;;;;48.92;22.85;;;-0.10;99.90;;;;;;4844163;29;20053;-74
2022/03/03 03:08:05;;;;;;;44.47;22.83;;;-0.10;99.90;;;;;;4826867;29;20125;-73
2022/03/03 03:10:30;;;;;;;44.10;21.85;;;-0.10;99.90;;;;;;4827119;29;20142;-75
2022/03/03 03:12:57;;;;;;;50.55;24.17;;;-0.10;99.90;;;;;;4843888;29;20082;-73
2022/03/03 03:15:23;;;;;;;51.00;24.13;;;0.80;99.90;;;;;;4827528;29;20126;-74
2022/03/03 03:17:49;;;;;;;53.13;23.77;;;0.20;99.90;;;;;;4843862;29;20388;-73
2022/03/03 03:20:14;;;;;;;57.30;27.00;;;-0.10;99.90;;;;;;4844045;29;20106;-74
2022/03/03 03:22:40;;;;;;;55.38;25.60;;;-0.10;99.90;;;;;;4843884;29;20422;-74
2022/03/03 03:25:09;;;;;;;55.97;26.27;;;-0.10;99.90;;;;;;4843577;29;20050;-74
2022/03/03 03:27:36;;;;;;;52.63;24.58;;;-0.10;99.90;;;;;;4843720;29;20136;-74
2022/03/03 03:30:03;;;;;;;56.53;26.17;;;-0.10;99.90;;;;;;4827073;29;20065;-75
2022/03/03 03:32:29;;;;;;;49.05;22.92;;;-0.10;99.90;;;;;;4843513;29;20050;-73
2022/03/03 03:34:55;;;;;;;49.40;24.17;;;-0.10;99.90;;;;;;4843371;29;20054;-74
2022/03/03 03:37:21;;;;;;;50.85;24.15;;;-0.20;99.90;;;;;;4843738;29;20054;-74
2022/03/03 03:39:46;;;;;;;49.42;22.10;;;-0.20;99.90;;;;;;4827190;29;20060;-74
2022/03/03 03:42:12;;;;;;;51.67;24.45;;;-0.30;99.90;;;;;;4843430;29;20094;-74
2022/03/03 03:44:38;;;;;;;46.08;22.70;;;-0.30;99.90;;;;;;4843594;29;20050;-74
2022/03/03 03:47:04;;;;;;;50.72;23.38;;;-0.30;99.90;;;;;;4826939;29;20050;-73
2022/03/03 03:49:30;;;;;;;53.25;22.63;;;-0.30;99.90;;;;;;4843115;29;20065;-74
2022/03/03 03:51:55;;;;;;;51.92;24.05;;;-0.30;99.90;;;;;;4826749;29;20053;-74
2022/03/03 03:54:21;;;;;;;45.95;22.15;;;-0.30;99.90;;;;;;4826755;29;20475;-73
2022/03/03 03:56:47;;;;;;;48.65;21.50;;;-0.30;99.90;;;;;;4842702;29;20137;-72
2022/03/03 03:59:13;;;;;;;53.63;23.10;;;-0.40;99.90;;;;;;4843335;29;20050;-73
2022/03/03 04:01:39;;;;;;;48.53;21.67;;;-0.40;99.90;;;;;;4843258;29;20081;-74
2022/03/03 04:04:04;;;;;;;44.80;21.70;;;-0.40;99.90;;;;;;4842882;29;20082;-74
2022/03/03 04:06:30;;;;;;;27.20;10.90;;;-0.40;99.90;;;;;;4826506;29;20072;-74
2022/03/03 04:08:56;;;;;;;24.25;9.80;;;-0.40;99.90;;;;;;4843267;29;20050;-74
2022/03/03 04:11:21;;;;;;;27.90;10.70;;;-0.50;99.90;;;;;;4842842;29;20152;-76
2022/03/03 04:13:47;;;;;;;26.88;10.23;;;-0.40;99.90;;;;;;4826530;29;20049;-74
2022/03/03 04:16:12;;;;;;;23.15;10.02;;;-0.40;99.90;;;;;;4842635;29;20121;-74
2022/03/03 04:18:38;;;;;;;35.25;11.30;;;-0.50;99.90;;;;;;4842784;29;20058;-74
2022/03/03 04:21:05;;;;;;;18.45;9.27;;;0.00;99.90;;;;;;4842704;29;20042;-74
2022/03/03 04:23:31;;;;;;;18.95;11.00;;;-0.50;99.90;;;;;;4842873;29;20101;-72
2022/03/03 04:25:56;;;;;;;24.27;11.50;;;-0.50;99.90;;;;;;4842908;29;20406;-73
2022/03/03 04:28:22;;;;;;;28.83;12.02;;;-0.50;99.90;;;;;;4842461;29;20439;-73
2022/03/03 04:30:48;;;;;;;23.45;10.27;;;-0.50;99.90;;;;;;4841823;29;20417;-74
2022/03/03 04:33:14;;;;;;;29.33;10.63;;;-0.50;99.90;;;;;;4842627;29;20042;-73
2022/03/03 04:35:40;;;;;;;26.95;9.73;;;-0.50;99.90;;;;;;4842474;29;20093;-74
2022/03/03 04:38:05;;;;;;;25.85;10.90;;;-0.50;99.90;;;;;;4842731;29;20078;-73
2022/03/03 04:40:31;;;;;;;28.17;9.65;;;-0.50;99.90;;;;;;4842629;29;20050;-74
2022/03/03 04:42:59;;;;;;;25.42;9.82;;;-0.40;99.90;;;;;;4825552;29;20061;-74
2022/03/03 04:45:25;;;;;;;22.55;9.80;;;-0.50;99.90;;;;;;4842333;29;20066;-74
2022/03/03 04:47:51;;;;;;;19.75;8.38;;;-0.50;99.90;;;;;;4826099;29;20121;-74
2022/03/03 04:50:17;;;;;;;20.48;10.10;;;-0.50;99.90;;;;;;4842407;29;20046;-74
2022/03/03 04:52:43;;;;;;;29.33;11.55;;;-0.50;99.90;;;;;;4825890;29;20045;-74
2022/03/03 04:55:09;;;;;;;20.42;9.73;;;-0.50;99.90;;;;;;4826340;29;20537;-72
2022/03/03 04:57:35;;;;;;;22.50;10.00;;;-0.50;99.90;;;;;;4809783;29;20065;-74
2022/03/03 05:00:01;;;;;;;23.27;8.23;;;-0.50;99.90;;;;;;4842126;29;20057;-74
2022/03/03 05:02:26;;;;;;;28.00;10.20;;;-0.50;99.90;;;;;;4842171;29;20042;-74
2022/03/03 05:04:52;;;;;;;20.55;9.25;;;-0.50;99.90;;;;;;4826042;29;20054;-74
2022/03/03 05:07:19;;;;;;;30.10;10.20;;;-0.50;99.90;;;;;;4842104;29;20487;-74
2022/03/03 05:09:45;;;;;;;25.17;10.80;;;-0.60;99.90;;;;;;4842006;29;20074;-74
2022/03/03 05:12:10;;;;;;;20.65;8.27;;;-0.50;99.90;;;;;;4825844;29;20140;-74
2022/03/03 05:14:36;;;;;;;22.75;11.05;;;-0.60;99.90;;;;;;4825201;29;20054;-74
2022/03/03 05:17:02;;;;;;;28.23;10.20;;;-0.60;99.90;;;;;;4825785;29;20121;-74
2022/03/03 05:19:28;;;;;;;26.67;10.75;;;-0.60;99.90;;;;;;4825992;29;20539;-74
2022/03/03 05:21:53;;;;;;;24.52;10.20;;;-0.60;99.90;;;;;;4842076;29;20050;-75
2022/03/03 05:24:19;;;;;;;23.23;8.38;;;-0.70;99.90;;;;;;4842539;29;20399;-74
2022/03/03 05:26:44;;;;;;;19.45;9.07;;;-0.80;99.90;;;;;;4842222;29;20046;-74
2022/03/03 05:29:10;;;;;;;19.42;8.95;;;-0.80;99.90;;;;;;4841166;29;20526;-75
2022/03/03 05:31:36;;;;;;;23.77;10.32;;;-0.90;99.90;;;;;;4825401;29;20507;-75
2022/03/03 05:34:03;;;;;;;24.98;9.52;;;-0.90;99.90;;;;;;4825073;29;20053;-75
2022/03/03 05:36:29;;;;;;;25.40;12.15;;;-0.90;99.90;;;;;;4841814;29;20054;-74
2022/03/03 05:38:57;;;;;;;26.40;10.60;;;-0.90;99.90;;;;;;4841773;29;20050;-75
2022/03/03 05:41:23;;;;;;;26.10;11.73;;;-0.90;99.90;;;;;;4842130;29;20479;-76
2022/03/03 05:43:50;;;;;;;26.58;11.23;;;-0.80;99.90;;;;;;4825733;29;20042;-75
2022/03/03 05:46:16;;;;;;;31.40;12.43;;;-0.90;99.90;;;;;;4825184;29;20054;-75
2022/03/03 05:48:42;;;;;;;23.77;9.80;;;-0.90;99.90;;;;;;4825505;29;20050;-74
2022/03/03 05:51:08;;;;;;;22.58;9.13;;;-0.90;99.90;;;;;;4841737;29;20099;-75
2022/03/03 05:53:34;;;;;;;25.38;10.43;;;-0.90;99.90;;;;;;4841526;29;20085;-76
2022/03/03 05:56:06;;;;;;;20.15;9.98;;;-0.90;99.90;;;;;;4824817;29;20089;-75
2022/03/03 05:58:51;;;;;;;26.98;10.30;;;-0.90;99.90;;;;;;4825225;29;20050;-75
2022/03/03 06:01:18;;;;;;;20.27;9.52;;;-0.90;99.90;;;;;;4841475;29;20042;-74
2022/03/03 06:03:50;;;;;;;26.20;10.75;;;-0.90;99.90;;;;;;4825361;29;20098;-75
2022/03/03 06:06:25;;;;;;;36.30;14.15;;;-0.90;99.90;;;;;;4841686;29;20083;-75
2022/03/03 06:09:02;;;;;;;39.78;16.85;;;-0.90;99.90;;;;;;4825359;29;20057;-75
2022/03/03 06:11:29;;;;;;;45.92;17.60;;;-0.90;99.90;;;;;;4824859;29;20053;-76
2022/03/03 06:14:21;;;;;;;46.40;19.58;;;-0.90;99.90;;;;;;4841513;29;20057;-74
2022/03/03 06:16:48;;;;;;;49.65;21.45;;;-0.90;99.90;;;;;;4825030;29;20057;-75
2022/03/03 06:19:14;;;;;;;53.25;22.98;;;-0.80;99.90;;;;;;4841461;29;20517;-75
2022/03/03 06:21:40;;;;;;;47.72;21.58;;;-0.80;99.90;;;;;;4825050;29;20054;-75
2022/03/03 06:24:06;;;;;;;52.90;23.40;;;-0.80;99.90;;;;;;4841306;29;20132;-75
2022/03/03 06:26:31;;;;;;;51.55;25.50;;;-0.70;99.90;;;;;;4824375;29;20414;-74
2022/03/03 06:28:58;;;;;;;56.22;26.35;;;-0.70;99.90;;;;;;4824539;29;20046;-73
2022/03/03 06:31:26;;;;;;;53.55;24.55;;;-0.70;99.90;;;;;;4834738;29;20150;-77
2022/03/03 06:33:51;;;;;;;54.67;24.80;;;-0.60;99.90;;;;;;4840628;29;20112;-75
2022/03/03 06:36:17;;;;;;;54.17;26.20;;;-0.60;99.90;;;;;;4840308;29;20767;-76
2022/03/03 06:38:43;;;;;;;53.20;25.73;;;-0.60;99.90;;;;;;4840067;29;20077;-77
2022/03/03 06:41:09;;;;;;;54.53;27.33;;;-0.50;99.90;;;;;;4839976;29;20737;-79
2022/03/03 06:43:35;;;;;;;56.28;26.45;;;-0.40;99.90;;;;;;4843501;29;20167;-79
2022/03/03 06:46:02;;;;;;;53.08;25.90;;;-0.40;99.90;;;;;;4843710;29;20054;-78
2022/03/03 06:48:27;;;;;;;56.85;27.52;;;-0.40;99.90;;;;;;4843110;29;20456;-77
2022/03/03 06:50:55;;;;;;;56.42;26.30;;;-0.30;99.90;;;;;;4843285;29;20042;-77
2022/03/03 06:53:30;;;;;;;63.50;29.88;;;-0.30;99.90;;;;;;4842185;29;20094;-78
2022/03/03 06:56:07;;;;;;;56.47;28.88;;;-0.30;99.90;;;;;;4842365;29;20054;-80
2022/03/03 06:58:34;;;;;;;55.17;27.88;;;-0.40;99.90;;;;;;4843438;29;20054;-80
2022/03/03 07:01:07;;;;;;;57.95;28.48;;;-0.30;99.90;;;;;;4825969;29;20098;-79
2022/03/03 07:03:33;;;;;;;61.65;29.70;;;-0.30;99.90;;;;;;4843108;29;20096;-78
2022/03/03 07:06:00;;;;;;;62.47;29.73;;;-0.40;99.90;;;;;;4842493;29;20101;-76
2022/03/03 07:08:27;;;;;;;60.05;29.30;;;-0.30;99.90;;;;;;4843536;29;20403;-78
2022/03/03 07:10:53;;;;;;;63.33;31.27;;;-0.30;99.90;;;;;;4842128;29;20495;-78
2022/03/03 07:13:19;;;;;;;62.28;29.38;;;0.80;99.90;;;;;;4819381;29;20064;-79
2022/03/03 07:15:49;;;;;;;55.85;28.88;;;-0.20;99.90;;;;;;4832665;29;20054;-79
2022/03/03 07:18:20;;;;;;;54.15;27.38;;;-0.20;99.90;;;;;;4831099;29;20419;-81
2022/03/03 07:21:04;;;;;;;59.80;28.07;;;-0.20;99.90;;;;;;4808170;29;20496;-82
2022/03/03 07:23:39;;;;;;;58.38;27.55;;;-0.10;99.90;;;;;;4808586;29;20582;-80
2022/03/03 07:26:08;;;;;;;57.58;27.92;;;-0.10;99.90;;;;;;4824784;29;20131;-82
2022/03/03 07:28:34;;;;;;;56.28;26.48;;;0.00;99.90;;;;;;4824819;29;20082;-82
2022/03/03 07:31:02;;;;;;;55.58;27.55;;;0.00;99.90;;;;;;4822502;29;20062;-81
2022/03/03 07:33:43;;;;;;;53.72;26.02;;;0.10;99.90;;;;;;4824761;29;20100;-82
2022/03/03 07:36:12;;;;;;;59.92;30.10;;;0.20;99.90;;;;;;4824308;29;20404;-81
2022/03/03 07:38:39;;;;;;;54.05;27.83;;;0.20;99.90;;;;;;4808428;29;20419;-78
2022/03/03 07:41:07;;;;;;;53.00;26.73;;;0.30;99.90;;;;;;4807590;29;20046;-78
2022/03/03 07:43:33;;;;;;;60.75;28.08;;;0.30;99.90;;;;;;4808142;29;20507;-83
2022/03/03 07:45:59;;;;;;;56.35;27.70;;;0.40;99.90;;;;;;4824184;29;20042;-81
2022/03/03 07:48:25;;;;;;;57.90;27.52;;;0.40;99.90;;;;;;4792420;29;20057;-81
2022/03/03 07:50:52;;;;;;;55.08;26.33;;;0.50;99.90;;;;;;4807998;29;20046;-84
2022/03/03 07:53:18;;;;;;;53.83;25.92;;;0.40;99.90;;;;;;4806641;29;20085;-80
2022/03/03 07:55:55;;;;;;;50.92;25.75;;;0.50;99.90;;;;;;4808443;29;20144;-81
2022/03/03 07:58:27;;;;;;;56.17;26.80;;;0.60;99.90;;;;;;4823972;29;20066;-80
2022/03/03 08:00:57;;;;;;;63.50;28.38;;;0.60;99.90;;;;;;4823733;29;20139;-76
2022/03/03 08:03:23;;;;;;;51.03;27.05;;;1.50;99.90;;;;;;4807761;29;20495;-79
2022/03/03 08:05:51;;;;;;;54.30;26.20;;;0.80;99.90;;;;;;4806927;29;20050;-80
2022/03/03 08:08:21;;;;;;;54.05;25.65;;;0.80;99.90;;;;;;4824237;29;20053;-81
2022/03/03 08:10:47;;;;;;;50.65;25.70;;;0.90;99.90;;;;;;4807112;29;20058;-79
2022/03/03 08:13:15;;;;;;;52.78;25.60;;;1.00;99.90;;;;;;4823810;29;20082;-79
2022/03/03 08:15:43;;;;;;;53.25;26.13;;;1.00;99.90;;;;;;4824013;29;20137;-78
2022/03/03 08:18:09;;;;;;;52.92;24.30;;;1.10;99.90;;;;;;4823470;29;20444;-79
2022/03/03 08:20:38;;;;;;;53.75;25.08;;;1.10;99.90;;;;;;4823765;29;20058;-80
2022/03/03 08:23:05;;;;;;;50.60;25.20;;;1.20;99.90;;;;;;4823098;29;20103;-77
2022/03/03 08:25:31;;;;;;;53.38;27.63;;;1.20;99.90;;;;;;4807610;29;20058;-77
2022/03/03 08:27:57;;;;;;;49.22;25.25;;;1.30;99.90;;;;;;4823429;29;20182;-80
2022/03/03 08:30:24;;;;;;;50.45;24.92;;;1.40;99.90;;;;;;4823349;29;20061;-80
2022/03/03 08:33:14;;;;;;;47.72;24.98;;;1.50;99.90;;;;;;4823934;29;20108;-79
2022/03/03 08:35:44;;;;;;;50.63;23.88;;;1.60;99.90;;;;;;4823136;29;20042;-79
2022/03/03 08:38:37;;;;;;;54.42;26.40;;;1.70;99.90;;;;;;4807434;29;20054;-78
2022/03/03 08:41:04;;;;;;;52.50;25.38;;;1.80;99.90;;;;;;4806602;29;20065;-76
2022/03/03 08:43:32;;;;;;;51.25;25.30;;;1.90;99.90;;;;;;4824300;29;20051;-78
2022/03/03 08:46:03;;;;;;;54.45;26.60;;;2.00;99.90;;;;;;4824733;29;20047;-81
2022/03/03 08:48:31;;;;;;;45.70;24.00;;;2.10;99.90;;;;;;4808008;29;20057;-80
2022/03/03 08:51:02;;;;;;;50.63;26.65;;;2.10;99.90;;;;;;4824241;29;20103;-79
2022/03/03 08:53:28;;;;;;;48.88;23.45;;;2.20;99.90;;;;;;4824398;29;20046;-79
2022/03/03 08:55:54;;;;;;;48.05;25.65;;;2.30;99.90;;;;;;4824187;29;20053;-80
2022/03/03 08:58:21;;;;;;;46.45;24.17;;;2.40;99.90;;;;;;4823893;29;20058;-79
2022/03/03 09:00:48;;;;;;;46.10;22.80;;;2.50;99.90;;;;;;4824455;29;20054;-79
2022/03/03 09:03:15;;;;;;;46.30;24.23;;;2.60;99.90;;;;;;4824324;29;20550;-80
2022/03/03 09:05:41;;;;;;;48.33;24.25;;;2.70;99.90;;;;;;4827290;29;20479;-78
2022/03/03 09:08:07;;;;;;;47.83;25.58;;;2.80;99.90;;;;;;4841886;29;20098;-78
2022/03/03 09:10:33;;;;;;;41.95;21.38;;;2.90;99.90;;;;;;4841181;29;20049;-80
2022/03/03 09:13:00;;;;;;;45.03;23.65;;;3.00;99.90;;;;;;4841801;29;20053;-80
2022/03/03 09:15:30;;;;;;;44.97;22.55;;;3.30;99.90;;;;;;4841086;29;20057;-77
2022/03/03 09:17:56;;;;;;;42.58;22.40;;;3.60;99.90;;;;;;4841675;29;20057;-80
2022/03/03 09:20:22;;;;;;;38.53;20.73;;;3.90;99.90;;;;;;4841793;29;20052;-82
2022/03/03 09:22:48;;;;;;;46.25;24.00;;;4.10;99.90;;;;;;4840505;29;20049;-81
2022/03/03 09:25:13;;;;;;;46.45;22.55;;;4.30;99.90;;;;;;4841439;29;20050;-79
2022/03/03 09:27:40;;;;;;;41.67;22.55;;;4.60;99.90;;;;;;4839563;29;20724;-76
2022/03/03 09:30:07;;;;;;;41.92;22.92;;;4.90;99.90;;;;;;4841895;29;20103;-80
2022/03/03 09:32:32;;;;;;;42.67;21.85;;;5.10;99.90;;;;;;4825002;29;20050;-79
2022/03/03 09:34:58;;;;;;;36.25;20.73;;;5.20;99.90;;;;;;4840066;29;20404;-79
2022/03/03 09:37:24;;;;;;;38.83;21.15;;;5.30;99.90;;;;;;4840985;29;20053;-78
2022/03/03 09:39:50;;;;;;;39.63;20.58;;;5.30;99.90;;;;;;4840340;29;20053;-80
2022/03/03 09:42:16;;;;;;;36.10;17.90;;;5.40;99.90;;;;;;4841428;29;20415;-78
2022/03/03 09:44:43;;;;;;;34.65;18.10;;;5.40;99.90;;;;;;4840461;29;20042;-74
2022/03/03 09:47:11;;;;;;;35.63;17.10;;;5.40;99.90;;;;;;4839291;29;20544;-76
2022/03/03 09:49:38;;;;;;;34.47;17.25;;;5.40;99.90;;;;;;4840971;29;20722;-76
2022/03/03 09:52:18;;;;;;;31.10;17.17;;;5.60;99.90;;;;;;4823501;29;20145;-78
2022/03/03 09:54:51;;;;;;;33.90;16.85;;;6.20;99.90;;;;;;4840522;29;20951;-77
2022/03/03 09:57:17;;;;;;;36.42;16.40;;;6.00;99.90;;;;;;4839047;29;20058;-76
2022/03/03 09:59:44;;;;;;;34.45;16.23;;;5.80;99.90;;;;;;4824471;29;20073;-76
2022/03/03 10:02:10;;;;;;;30.98;16.02;;;5.90;99.90;;;;;;4840766;29;20479;-76
2022/03/03 10:04:36;;;;;;;34.83;16.83;;;6.10;99.90;;;;;;4839129;29;20479;-76
2022/03/03 10:07:10;;;;;;;35.78;16.45;;;6.00;99.90;;;;;;4824290;29;20046;-76
2022/03/03 10:10:23;;;;;;;33.72;15.55;;;6.00;99.90;;;;;;4839750;29;20038;-72
2022/03/03 10:12:26;;;;;;;34.63;16.63;;;6.00;99.90;;;;;;4824938;29;20062;-76
2022/03/03 10:14:57;;;;;;;30.65;14.70;;;6.00;99.90;;;;;;4840213;29;20050;-76
2022/03/03 10:17:35;;;;;;;30.58;16.40;;;6.20;99.90;;;;;;4843915;29;20050;-75
2022/03/03 10:20:03;;;;;;;30.98;15.55;;;6.20;99.90;;;;;;4844158;29;20056;-77
2022/03/03 10:22:57;;;;;;;29.15;14.77;;;6.30;99.90;;;;;;4841997;29;20062;-73
2022/03/03 10:25:32;;;;;;;27.33;15.05;;;6.80;99.90;;;;;;4827586;29;20522;-80
2022/03/03 10:28:20;;;;;;;27.65;13.70;;;6.40;99.90;;;;;;4827130;29;20136;-77
2022/03/03 10:31:06;;;;;;;29.48;13.48;;;6.40;99.90;;;;;;4842379;29;20066;-77
2022/03/03 10:33:41;;;;;;;28.65;15.13;;;7.00;99.90;;;;;;4813830;29;20149;-78
2022/03/03 10:36:11;;;;;;;30.27;15.25;;;6.50;99.90;;;;;;4844233;29;20050;-75
2022/03/03 10:38:49;;;;;;;29.83;15.27;;;7.20;99.90;;;;;;4843013;29;20740;-78
2022/03/03 10:41:38;;;;;;;26.73;13.57;;;6.70;99.90;;;;;;4844108;29;20088;-77
2022/03/03 10:44:32;;;;;;;29.27;13.73;;;6.80;99.90;;;;;;4843335;29;20494;-77
2022/03/03 10:47:24;;;;;;;29.15;15.30;;;6.90;99.90;;;;;;4769229;30;20163;-78
2022/03/03 10:49:53;;;;;;;30.55;15.40;;;7.50;99.90;;;;;;4767938;30;20064;-76
2022/03/03 10:52:24;;;;;;;29.63;15.40;;;7.00;99.90;;;;;;4769135;30;20055;-79
2022/03/03 10:55:01;;;;;;;25.45;13.25;;;7.10;99.90;;;;;;4768542;30;20063;-82
2022/03/03 10:57:46;;;;;;;25.80;13.68;;;7.10;99.90;;;;;;4768201;30;20055;-75
2022/03/03 11:00:36;;;;;;;25.08;13.70;;;7.20;99.90;;;;;;4769335;30;20060;-75
2022/03/03 11:03:03;;;;;;;31.13;14.15;;;7.20;99.90;;;;;;4768411;30;20148;-75
2022/03/03 11:05:31;;;;;;;28.08;13.13;;;7.30;99.90;;;;;;4768510;30;20136;-76
2022/03/03 11:07:57;;;;;;;25.55;12.88;;;7.40;99.90;;;;;;4768517;30;20454;-78
2022/03/03 11:10:25;;;;;;;26.60;13.00;;;7.50;99.90;;;;;;4768807;30;20125;-79
2022/03/03 11:12:51;;;;;;;26.45;13.38;;;7.90;99.90;;;;;;4768734;30;20093;-80
2022/03/03 11:15:22;;;;;;;29.83;14.10;;;7.70;99.90;;;;;;4768471;30;20059;-78
2022/03/03 11:17:49;;;;;;;23.98;10.25;;;7.70;99.90;;;;;;4768797;30;20063;-79
2022/03/03 11:20:17;;;;;;;22.13;9.85;;;7.80;99.90;;;;;;4753543;30;20052;-78
2022/03/03 11:22:47;;;;;;;20.83;9.52;;;8.20;99.90;;;;;;4768739;29;20099;-78
2022/03/03 11:25:17;;;;;;;24.38;10.25;;;7.70;99.90;;;;;;4825742;29;20042;-79
2022/03/03 11:27:44;;;;;;;24.73;11.13;;;7.80;99.90;;;;;;4841783;29;20114;-79
2022/03/03 11:30:31;;;;;;;17.92;8.30;;;7.70;99.00;;;;;;4843310;29;20066;-79
2022/03/03 11:33:25;;;;;;;21.45;9.63;;;7.70;95.30;;;;;;4842351;29;20046;-80
2022/03/03 11:35:59;;;;;;;19.20;8.45;;;7.70;91.70;;;;;;4843099;29;20049;-77
2022/03/03 11:38:43;;;;;;;22.95;9.20;;;7.80;99.90;;;;;;4842453;29;20078;-79
2022/03/03 11:41:09;;;;;;;22.15;9.45;;;8.30;93.00;;;;;;4841703;29;20102;-80
2022/03/03 11:43:49;;;;;;;20.17;7.88;;;8.30;99.90;;;;;;4815462;29;20042;-81
2022/03/03 11:46:44;;;;;;;23.05;9.55;;;8.00;99.90;;;;;;4831485;29;20500;-80
2022/03/03 11:49:12;;;;;;;20.00;8.82;;;8.10;96.20;;;;;;4807602;29;20452;-80
2022/03/03 11:51:38;;;;;;;21.23;8.88;;;8.20;99.90;;;;;;4816786;29;20499;-79
2022/03/03 11:54:11;;;;;;;20.92;9.32;;;8.20;99.90;;;;;;4822763;29;20069;-78
2022/03/03 11:57:04;;;;;;;19.08;8.32;;;8.10;94.70;;;;;;4823445;29;20061;-80
2022/03/03 11:59:39;;;;;;;19.38;8.20;;;8.20;94.50;;;;;;4824129;29;20115;-79
2022/03/03 12:02:05;;;;;;;18.83;7.85;;;8.50;95.40;;;;;;4823763;29;20129;-80
2022/03/03 12:04:32;;;;;;;18.23;8.60;;;8.40;92.70;;;;;;4807612;29;20054;-80
2022/03/03 12:06:58;;;;;;;17.90;8.77;;;8.50;98.30;;;;;;4807951;29;20046;-79
2022/03/03 12:09:30;;;;;;;25.38;9.02;;;8.50;98.50;;;;;;4825244;29;20070;-80
2022/03/03 12:12:16;;;;;;;20.40;8.90;;;8.80;98.90;;;;;;4825028;29;20099;-80
2022/03/03 12:14:59;;;;;;;20.80;8.43;;;8.70;97.10;;;;;;4824618;29;20046;-79
2022/03/03 12:17:46;;;;;;;18.92;8.10;;;8.80;99.90;;;;;;4808767;29;20062;-80
2022/03/03 12:20:23;;;;;;;19.48;7.95;;;8.80;94.40;;;;;;4808426;29;20066;-78
2022/03/03 12:23:12;;;;;;;19.52;7.85;;;8.80;99.40;;;;;;4824928;29;20487;-80
2022/03/03 12:25:58;;;;;;;17.63;7.63;;;8.90;99.40;;;;;;4808631;29;20060;-79
2022/03/03 12:28:39;;;;;;;21.75;7.95;;;9.00;91.40;;;;;;4839057;29;20050;-81
2022/03/03 12:31:25;;;;;;;19.42;8.32;;;9.00;95.30;;;;;;4826406;29;20090;-79
2022/03/03 12:34:02;;;;;;;15.35;7.18;;;9.00;90.90;;;;;;4839789;29;20138;-76
2022/03/03 12:36:30;;;;;;;19.17;7.90;;;9.10;93.10;;;;;;4840735;29;20499;-78
2022/03/03 12:38:56;;;;;;;15.80;6.90;;;9.20;94.40;;;;;;4832125;29;20046;-75
2022/03/03 12:41:27;;;;;;;17.50;7.57;;;9.20;90.00;;;;;;4831525;29;20469;-73
2022/03/03 12:43:53;;;;;;;18.95;8.48;;;9.20;93.60;;;;;;4829025;29;20046;-83
2022/03/03 12:46:19;;;;;;;17.85;7.88;;;9.40;93.50;;;;;;4835194;29;20045;-80